TQPF METAR and TAF | Updated Today

TQPF METAR

Clayton J Lloyd International Airport

Observation time: 22 min. ago

TQPF 062000Z 09014KT 9999 FEW019 27/21 Q1017

Need help? Read our tutorial on how to read METARs or read the parsed version below.

Clayton J Lloyd International Airport (TQPF) METAR

  • Weather conditions on Mon, 06 Feb 2023 20:00:00 +0000 (22 min. ago):
  • Present conditions: Dry
  • Clouds: A few at 579 meters
  • Visibility: Greater than 10 km
  • Wind: 90 degrees at 14 knots
  • Temperature: 27 celsius
  • Dew point: 21 celsius
  • Pressure: 1017 millibars
  • Remarks: None


Useful to know...

TQPF TAF

Clayton J Lloyd International Airport

TAF TQPF 061713Z 0618/0718 09015KT 9999 SCT022 PROB40 TEMPO 0618/0714 09015G25KT SHRA
Observation time: 3:09 hr. ago
Need help? Read our tutorial on how to read TAFs or read the parsed version below.

Parsed version of TAF for Clayton J Lloyd International Airport (TQPF)

  • From 06 February at 18:00 UTC, to day 07 of the month at 18:00 UTC
  • Clouds: Scattered at 671 meters
  • Visibility: Greater than 10 km
  • Wind: 90 degrees at 15
  • Expected to arise temporarily, from 06 February at 18:00 UTC, to day 07 of the month at 14:00 UTC
    Probability of 40%
  • Wind: 90 degrees at 15
  • Other: Showers of rain